Time;durP1;ratioP1;P1;durP2;ratioP2;P2;SDS_P1;SDS_P2;PMS_P1;PMS_P2;Temp;Humidity;BMP_temperature;BMP_pressure;BME280_temperature;BME280_humidity;BME280_pressure;Samples;Min_cycle;Max_cycle;Signal;HPM_P1;HPM_P2
2023/10/15 00:00:25;;;;;;;3.63;3.42;;;;;;;7.09;100.00;100963.91;6058048;23;20034;-74
2023/10/15 00:02:52;;;;;;;3.60;3.40;;;;;;;5.94;100.00;100801.56;6055557;23;20039;-74
2023/10/15 00:05:21;;;;;;;3.35;3.25;;;;;;;6.78;100.00;100961.47;6035947;23;20347;-74
2023/10/15 00:07:49;;;;;;;4.82;4.40;;;;;;;6.59;100.00;100932.50;6031140;23;20417;-74
2023/10/15 00:10:21;;;;;;;4.88;4.28;;;;;;;7.02;100.00;101032.88;6052335;23;20025;-74
2023/10/15 00:12:50;;;;;;;3.50;3.40;;;;;;;6.77;100.00;101014.50;6060486;23;20037;-74
2023/10/15 00:15:23;;;;;;;3.15;3.05;;;;;;;7.03;100.00;101057.19;6032630;23;20015;-74
2023/10/15 00:17:51;;;;;;;4.93;4.57;;;;;;;6.42;100.00;100942.63;6064887;23;20026;-74
2023/10/15 00:20:20;;;;;;;3.22;3.13;;;;;;;7.14;100.00;101055.97;6056441;23;20030;-74
2023/10/15 00:22:48;;;;;;;3.63;3.42;;;;;;;7.11;100.00;101040.38;6058022;23;20026;-73
2023/10/15 00:25:18;;;;;;;4.13;3.83;;;;;;;6.55;100.00;100949.13;6060000;23;20041;-74
2023/10/15 00:27:57;;;;;;;4.90;4.45;;;;;;;7.16;100.00;101053.31;6049454;23;20026;-74
2023/10/15 00:30:32;;;;;;;3.88;3.67;;;;;;;6.51;100.00;100948.38;6057360;23;20125;-74
2023/10/15 00:33:03;;;;;;;3.60;3.40;;;;;;;7.01;100.00;101041.59;6032632;23;20042;-74
2023/10/15 00:35:35;;;;;;;4.15;3.78;;;;;;;6.96;100.00;101028.69;6058433;23;20034;-73
2023/10/15 00:38:07;;;;;;;3.67;3.50;;;;;;;6.92;100.00;101015.81;6055751;23;20065;-74
2023/10/15 00:40:41;;;;;;;3.60;3.40;;;;;;;6.70;100.00;100976.50;6060438;23;20331;-73
2023/10/15 00:43:08;;;;;;;3.47;3.38;;;;;;;6.72;100.00;100980.75;6030347;23;20030;-73
2023/10/15 00:45:39;;;;;;;3.60;3.40;;;;;;;6.03;100.00;100880.38;6017206;23;20082;-74
2023/10/15 00:48:08;;;;;;;3.67;3.47;;;;;;;6.88;100.00;101022.03;6053001;23;20022;-73
2023/10/15 00:50:40;;;;;;;3.83;3.60;;;;;;;7.03;100.00;101052.81;6049849;23;20162;-73
2023/10/15 00:53:22;;;;;;;3.78;3.58;;;;;;;7.07;100.00;101057.03;6053383;23;20367;-73
2023/10/15 00:56:03;;;;;;;4.40;4.20;;;;;;;7.18;100.00;101051.50;6050843;23;20023;-72
2023/10/15 01:01:19;;;;;;;3.67;3.47;;;;;;;7.10;100.00;101036.09;6028775;23;20410;-73
2023/10/15 01:03:54;;;;;;;4.47;4.28;;;;;;;7.16;100.00;101038.50;5996466;23;20031;-73
2023/10/15 01:06:35;;;;;;;3.40;3.30;;;;;;;7.08;100.00;101029.22;6050712;23;20297;-73
2023/10/15 01:09:09;;;;;;;3.47;3.38;;;;;;;7.05;100.00;101056.25;6025346;23;20011;-72
2023/10/15 01:11:44;;;;;;;3.47;3.30;;;;;;;6.11;100.00;100920.06;6029990;23;20026;-72
2023/10/15 01:14:11;;;;;;;3.95;3.67;;;;;;;6.95;100.00;101054.81;6053295;23;20030;-72
2023/10/15 01:16:41;;;;;;;3.65;3.47;;;;;;;6.31;100.00;100974.19;6050059;23;20144;-73
2023/10/15 01:22:01;;;;;;;3.58;3.38;;;;;;;6.86;100.00;101055.97;6047221;23;20022;-74
2023/10/15 01:24:32;;;;;;;3.40;3.30;;;;;;;6.92;100.00;101066.22;6056263;23;20079;-73
2023/10/15 01:29:41;;;;;;;3.47;3.30;;;;;;;6.75;100.00;101038.03;6063065;23;20085;-73
2023/10/15 01:32:18;;;;;;;3.30;3.20;;;;;;;5.95;100.00;100893.63;6023242;23;20027;-74
2023/10/15 01:34:45;;;;;;;7.97;3.47;;;;;;;6.99;100.00;101052.06;6029999;23;20059;-75
2023/10/15 01:37:15;;;;;;;4.05;3.60;;;;;;;6.39;100.00;100957.44;6029785;23;20027;-72
2023/10/15 01:39:47;;;;;;;4.63;3.80;;;;;;;6.71;100.00;101049.47;6026178;23;20085;-73
2023/10/15 01:45:09;;;;;;;4.00;3.70;;;;;;;6.78;100.00;101074.47;6048671;23;20338;-75
2023/10/15 01:47:36;;;;;;;3.40;3.30;;;;;;;6.37;100.00;101000.09;6033867;23;20023;-72
2023/10/15 01:50:08;;;;;;;4.20;3.85;;;;;;;6.14;100.00;101008.59;6045500;23;20022;-72
2023/10/15 01:52:44;;;;;;;3.92;3.72;;;;;;;6.92;100.00;101081.03;6034798;23;20017;-72
2023/10/15 01:55:13;;;;;;;3.65;3.45;;;;;;;6.70;100.00;101059.97;6029578;23;20090;-74
2023/10/15 01:57:41;;;;;;;3.85;3.67;;;;;;;6.38;100.00;101007.03;6048908;23;20454;-72
2023/10/15 02:00:33;;;;;;;3.88;3.67;;;;;;;6.87;100.00;101059.44;6059913;23;20018;-74
2023/10/15 02:03:00;;;;;;;3.80;3.50;;;;;;;6.51;100.00;100986.63;6026312;23;20050;-73
2023/10/15 02:05:41;;;;;;;3.70;3.50;;;;;;;6.51;100.00;101008.34;6059142;23;20453;-73
2023/10/15 02:08:23;;;;;;;8.93;3.67;;;;;;;5.49;100.00;100796.88;6023409;23;20034;-75
2023/10/15 02:10:51;;;;;;;3.30;3.20;;;;;;;6.93;100.00;101060.09;6049860;23;20034;-73
2023/10/15 02:13:21;;;;;;;3.47;3.30;;;;;;;6.73;100.00;101034.63;6052988;23;20375;-73
2023/10/15 02:15:49;;;;;;;5.15;4.85;;;;;;;6.71;100.00;101043.41;6056499;23;20002;-73
2023/10/15 02:18:19;;;;;;;3.88;3.50;;;;;;;6.42;100.00;101013.84;6030300;23;20391;-73
2023/10/15 02:21:00;;;;;;;3.47;3.38;;;;;;;6.52;100.00;101028.31;6046944;23;20010;-73
2023/10/15 02:23:32;;;;;;;3.80;3.60;;;;;;;6.58;100.00;101035.09;6004519;23;20026;-73
2023/10/15 02:25:59;;;;;;;3.40;3.30;;;;;;;6.35;100.00;101017.53;6054247;23;20198;-73
2023/10/15 02:28:36;;;;;;;3.30;3.20;;;;;;;6.77;100.00;101079.72;6050672;23;20582;-74
2023/10/15 02:33:30;;;;;;;10.52;3.75;;;;;;;6.90;100.00;101077.63;6045718;23;20029;-72
2023/10/15 02:35:59;;;;;;;4.63;4.32;;;;;;;6.31;100.00;100987.22;6031353;23;20132;-73
2023/10/15 02:38:26;;;;;;;3.80;3.60;;;;;;;6.99;100.00;101087.75;6021738;23;20027;-72
2023/10/15 02:41:06;;;;;;;6.18;3.22;;;;;;;7.11;100.00;101117.84;6055370;23;20036;-73
2023/10/15 02:43:36;;;;;;;3.80;3.60;;;;;;;6.96;100.00;101095.69;6026540;23;20114;-73
2023/10/15 02:46:17;;;;;;;18.35;3.78;;;;;;;7.34;100.00;101125.81;6044900;23;20022;-73
2023/10/15 02:48:44;;;;;;;3.72;3.55;;;;;;;7.24;100.00;101100.06;6054758;23;20095;-73
2023/10/15 02:51:11;;;;;;;3.60;3.47;;;;;;;7.42;100.00;101107.28;6025016;23;20030;-73
2023/10/15 02:53:50;;;;;;;3.75;3.55;;;;;;;7.53;100.00;101113.00;6053998;23;20038;-72
2023/10/15 02:56:17;;;;;;;3.80;3.60;;;;;;;7.60;100.00;101111.06;6041554;23;20105;-73
2023/10/15 02:58:46;;;;;;;3.70;3.50;;;;;;;7.39;100.00;101095.16;6056613;23;20018;-73
2023/10/15 03:01:19;;;;;;;3.70;3.50;;;;;;;7.20;100.00;101057.53;6020682;23;20038;-75
2023/10/15 03:03:50;;;;;;;4.78;4.55;;;;;;;7.28;100.00;101072.94;6001045;23;20391;-74
2023/10/15 03:06:25;;;;;;;4.20;3.90;;;;;;;7.21;100.00;101056.59;6043061;23;20019;-74
2023/10/15 03:08:51;;;;;;;4.53;3.80;;;;;;;7.50;100.00;101105.28;6047423;23;20032;-74
2023/10/15 03:11:21;;;;;;;3.90;3.70;;;;;;;7.19;100.00;101038.38;6003027;23;20047;-74
2023/10/15 03:14:00;;;;;;;4.53;4.32;;;;;;;7.43;100.00;101084.63;6026377;23;20027;-74
2023/10/15 03:16:30;;;;;;;3.45;3.30;;;;;;;7.55;100.00;101087.69;6026021;23;20312;-74
2023/10/15 03:19:04;;;;;;;4.00;3.80;;;;;;;7.38;100.00;101040.41;6034205;23;20696;-73
2023/10/15 03:21:36;;;;;;;3.95;3.75;;;;;;;7.30;100.00;101026.75;6028752;23;20422;-74
2023/10/15 03:24:05;;;;;;;;;;;;;;;7.73;100.00;101075.75;6034114;23;20022;-74
2023/10/15 03:26:34;;;;;;;4.53;4.13;;;;;;;7.35;100.00;101025.66;6034218;23;19974;-74
2023/10/15 03:29:09;;;;;;;3.95;3.65;;;;;;;7.06;100.00;100964.00;6028224;23;20033;-74
2023/10/15 03:31:37;;;;;;;4.03;3.78;;;;;;;7.41;100.00;101002.88;6025343;23;20066;-74
2023/10/15 03:36:57;;;;;;;4.47;4.07;;;;;;;7.38;100.00;100973.38;6024686;23;20083;-74
2023/10/15 03:39:25;;;;;;;4.03;3.75;;;;;;;7.53;100.00;100969.34;6041332;23;20030;-74
2023/10/15 03:41:54;;;;;;;4.70;4.50;;;;;;;8.02;100.00;101023.38;6034978;23;20046;-74
2023/10/15 03:44:27;;;;;;;7.07;4.80;;;;;;;7.73;100.00;100975.63;6041011;23;20093;-73
2023/10/15 03:47:04;;;;;;;5.10;4.20;;;;;;;7.74;100.00;101032.22;5996076;23;20043;-73
2023/10/15 03:49:31;;;;;;;4.10;3.88;;;;;;;7.54;100.00;101014.63;6034311;23;20056;-73
2023/10/15 03:51:59;;;;;;;4.38;4.07;;;;;;;7.97;100.00;101054.91;6018768;23;20038;-72
2023/10/15 03:54:25;;;;;;;3.65;3.45;;;;;;;7.87;100.00;101064.81;6031590;23;20053;-73
2023/10/15 03:56:52;;;;;;;3.90;3.70;;;;;;;7.93;100.00;101095.97;6025423;23;20041;-73
2023/10/15 03:59:19;;;;;;;3.97;3.78;;;;;;;7.42;100.00;101007.19;6043909;23;20061;-73
2023/10/15 04:01:49;;;;;;;4.97;4.78;;;;;;;7.26;100.00;100980.78;6047720;23;20026;-73
2023/10/15 04:04:17;;;;;;;3.80;3.60;;;;;;;7.51;100.00;101023.41;6030954;23;20279;-73
2023/10/15 04:07:10;;;;;;;4.10;3.90;;;;;;;7.82;100.00;101084.19;6062838;23;20034;-74
2023/10/15 04:09:36;;;;;;;3.70;3.50;;;;;;;7.11;100.00;100975.13;6035250;23;20036;-72
2023/10/15 04:12:06;;;;;;;6.20;3.80;;;;;;;7.71;100.00;101088.00;6052305;23;20041;-73
2023/10/15 04:14:34;;;;;;;3.80;3.60;;;;;;;7.50;100.00;101063.50;6015951;23;20080;-73
2023/10/15 04:17:01;;;;;;;3.33;3.22;;;;;;;7.69;100.00;101096.81;6056623;23;20391;-74
2023/10/15 04:19:29;;;;;;;3.60;3.40;;;;;;;7.42;100.00;101048.97;6066312;23;20018;-73
2023/10/15 04:22:00;;;;;;;4.30;4.10;;;;;;;7.84;100.00;101124.16;6054192;23;20034;-74
2023/10/15 04:24:38;;;;;;;3.70;3.47;;;;;;;7.91;100.00;101136.97;6063152;23;20083;-74
2023/10/15 04:27:15;;;;;;;3.97;3.67;;;;;;;7.63;100.00;101094.41;6005098;23;20031;-74
2023/10/15 04:29:50;;;;;;;4.38;4.13;;;;;;;7.94;100.00;101139.50;6054421;23;20129;-73
2023/10/15 04:32:28;;;;;;;11.07;3.75;;;;;;;7.62;100.00;101077.03;6065051;23;20066;-74
2023/10/15 04:35:01;;;;;;;3.63;3.42;;;;;;;7.86;100.00;101110.16;6064793;23;20062;-74
2023/10/15 04:37:29;;;;;;;4.03;3.72;;;;;;;7.42;100.00;101057.66;6062198;23;20368;-74
2023/10/15 04:39:58;;;;;;;4.63;4.32;;;;;;;7.80;100.00;101123.44;6056948;23;20030;-74
2023/10/15 04:42:48;;;;;;;3.20;3.10;;;;;;;7.46;100.00;101079.31;6031434;23;20473;-74
2023/10/15 04:45:39;;;;;;;3.38;3.28;;;;;;;7.31;100.00;101044.94;6060011;23;20085;-74
2023/10/15 04:48:14;;;;;;;8.40;3.80;;;;;;;7.54;100.00;101095.59;6005610;23;20446;-74
2023/10/15 04:50:43;;;;;;;3.50;3.30;;;;;;;7.65;100.00;101116.13;6067741;23;20013;-74
2023/10/15 04:53:15;;;;;;;3.60;3.40;;;;;;;7.57;100.00;101134.66;6049328;23;20030;-73
2023/10/15 04:55:48;;;;;;;3.47;3.35;;;;;;;7.16;100.00;101072.41;6059087;23;20068;-75
2023/10/15 04:58:15;;;;;;;5.72;3.47;;;;;;;7.63;100.00;101146.66;6051538;23;20026;-75
2023/10/15 05:00:47;;;;;;;3.92;3.72;;;;;;;7.62;100.00;101134.47;6057815;23;20010;-73
2023/10/15 05:03:17;;;;;;;;;;;;;;;7.66;100.00;101149.16;6053282;23;20422;-73
2023/10/15 05:05:44;;;;;;;4.85;4.47;;;;;;;7.72;100.00;101157.66;6049757;23;19981;-72
2023/10/15 05:08:11;;;;;;;6.07;3.60;;;;;;;7.53;100.00;101141.72;6061575;23;20029;-73
2023/10/15 05:10:50;;;;;;;4.00;3.60;;;;;;;7.82;100.00;101186.09;6055021;23;20010;-73
2023/10/15 05:13:19;;;;;;;4.10;3.80;;;;;;;7.58;100.00;101145.03;6011480;23;20469;-73
2023/10/15 05:15:49;;;;;;;4.65;4.45;;;;;;;7.65;100.00;101150.06;6019675;23;20029;-74
2023/10/15 05:18:18;;;;;;;3.70;3.50;;;;;;;7.69;100.00;101147.28;6030193;23;20026;-74
2023/10/15 05:20:47;;;;;;;4.15;3.90;;;;;;;7.86;100.00;101183.34;6054972;23;20030;-73
2023/10/15 05:23:14;;;;;;;4.20;3.97;;;;;;;7.42;100.00;101128.16;6053528;23;20370;-74
2023/10/15 05:25:40;;;;;;;3.58;3.40;;;;;;;7.76;100.00;101163.66;6047715;23;20503;-74
2023/10/15 05:28:07;;;;;;;4.00;3.80;;;;;;;7.86;100.00;101190.28;6052224;23;20230;-74
2023/10/15 05:30:34;;;;;;;6.65;3.50;;;;;;;7.74;100.00;101181.97;6048193;23;20055;-73
2023/10/15 05:33:01;;;;;;;4.80;4.38;;;;;;;7.37;100.00;101115.25;6021345;23;20090;-74
2023/10/15 05:35:28;;;;;;;3.60;3.40;;;;;;;7.83;100.00;101191.25;6054546;23;20022;-73
2023/10/15 05:37:54;;;;;;;4.50;4.30;;;;;;;7.41;100.00;101125.59;6054265;23;20026;-73
2023/10/15 05:40:21;;;;;;;3.65;3.50;;;;;;;7.73;100.00;101174.19;6022705;23;20347;-74
2023/10/15 05:42:49;;;;;;;4.20;4.00;;;;;;;7.48;100.00;101127.97;6025492;23;20026;-73
2023/10/15 05:45:15;;;;;;;4.13;3.92;;;;;;;7.86;100.00;101214.69;6050597;23;20647;-74
2023/10/15 05:47:42;;;;;;;5.00;4.70;;;;;;;7.58;100.00;101155.50;6055074;23;20040;-73
2023/10/15 05:50:10;;;;;;;3.88;3.67;;;;;;;7.36;100.00;101146.66;6056909;23;20085;-73
2023/10/15 05:52:36;;;;;;;4.03;3.83;;;;;;;7.75;100.00;101229.84;6050702;23;20514;-73
2023/10/15 05:55:05;;;;;;;3.92;3.65;;;;;;;7.68;100.00;101217.91;6059382;23;20588;-73
2023/10/15 05:57:31;;;;;;;4.72;4.00;;;;;;;7.74;100.00;101238.63;6052041;23;20022;-74
2023/10/15 05:59:58;;;;;;;4.07;3.88;;;;;;;7.57;100.00;101218.22;6025942;23;20414;-75
2023/10/15 06:02:24;;;;;;;4.10;3.90;;;;;;;7.59;100.00;101212.03;6055383;23;20097;-73
2023/10/15 06:04:51;;;;;;;4.10;3.80;;;;;;;7.00;100.00;101120.78;6053736;23;20036;-73
2023/10/15 06:07:17;;;;;;;5.25;4.28;;;;;;;6.90;100.00;101108.91;6058660;23;20083;-72
2023/10/15 06:09:46;;;;;;;4.32;4.13;;;;;;;7.32;100.00;101181.59;6027911;23;20082;-73
2023/10/15 06:12:13;;;;;;;4.30;3.95;;;;;;;7.59;100.00;101238.16;6058039;23;20093;-76
2023/10/15 06:14:40;;;;;;;4.10;3.80;;;;;;;7.38;100.00;101210.97;6047757;23;20057;-74
2023/10/15 06:17:06;;;;;;;4.10;3.90;;;;;;;6.88;100.00;101126.38;6050038;23;20090;-74
2023/10/15 06:19:34;;;;;;;3.95;3.75;;;;;;;7.41;100.00;101214.38;6024859;23;20031;-73
2023/10/15 06:22:01;;;;;;;3.60;3.50;;;;;;;6.78;100.00;101103.16;6050080;23;20055;-73
2023/10/15 06:24:27;;;;;;;3.60;3.50;;;;;;;7.22;100.00;101182.75;6050342;23;20033;-74
2023/10/15 06:26:54;;;;;;;3.97;3.78;;;;;;;6.97;100.00;101141.75;6046853;23;20153;-75
2023/10/15 06:29:20;;;;;;;3.80;3.60;;;;;;;7.32;100.00;101205.09;6019544;23;20456;-73
2023/10/15 06:31:46;;;;;;;4.53;4.32;;;;;;;7.31;100.00;101195.53;6049851;23;20091;-72
2023/10/15 06:34:15;;;;;;;3.97;3.72;;;;;;;7.49;100.00;101212.38;6023846;23;20026;-72
2023/10/15 06:36:42;;;;;;;3.78;3.58;;;;;;;7.38;100.00;101199.69;6052200;23;20038;-74
2023/10/15 06:39:08;;;;;;;3.22;3.13;;;;;;;7.28;100.00;101177.38;6051257;23;20034;-72
2023/10/15 06:41:36;;;;;;;3.47;3.38;;;;;;;7.48;100.00;101214.16;6026312;23;20027;-73
2023/10/15 06:44:03;;;;;;;3.63;3.50;;;;;;;7.49;100.00;101217.63;6017588;23;20043;-74
2023/10/15 06:46:31;;;;;;;3.65;3.45;;;;;;;6.92;100.00;101126.22;6048627;23;20022;-73
2023/10/15 06:48:58;;;;;;;4.25;3.60;;;;;;;7.63;100.00;101225.03;6047401;23;20052;-73
2023/10/15 06:51:27;;;;;;;3.95;3.75;;;;;;;7.64;100.00;101227.59;6025172;23;20022;-73
2023/10/15 06:53:54;;;;;;;4.80;4.53;;;;;;;6.88;100.00;101092.47;6039973;23;20420;-73
2023/10/15 06:56:20;;;;;;;3.55;3.40;;;;;;;7.62;100.00;101232.00;6054374;23;20018;-72
2023/10/15 06:58:47;;;;;;;3.30;3.10;;;;;;;7.51;100.00;101213.19;6062468;23;20046;-72
2023/10/15 07:01:13;;;;;;;6.25;4.03;;;;;;;6.64;100.00;101091.44;6050519;23;20102;-72
2023/10/15 07:03:40;;;;;;;3.80;3.58;;;;;;;7.00;100.00;101136.44;6053289;23;20034;-73
2023/10/15 07:06:06;;;;;;;3.50;3.33;;;;;;;7.24;100.00;101186.19;6003372;23;20013;-73
2023/10/15 07:08:35;;;;;;;3.30;3.20;;;;;;;7.50;100.00;101204.50;6029476;23;20486;-73
2023/10/15 07:11:04;;;;;;;10.10;3.63;;;;;;;7.81;100.00;101236.66;6058473;23;20229;-73
2023/10/15 07:13:32;;;;;;;3.35;3.25;;;;;;;7.48;100.00;101172.38;6026324;23;20022;-73
2023/10/15 07:16:00;;;;;;;4.43;4.13;;;;;;;7.77;100.00;101214.97;6051233;23;20096;-73
2023/10/15 07:18:26;;;;;;;3.30;3.20;;;;;;;7.23;100.00;101135.72;6049073;23;20363;-73
2023/10/15 07:20:54;;;;;;;3.70;3.50;;;;;;;7.52;100.00;101145.25;6031412;23;20404;-73
2023/10/15 07:23:21;;;;;;;3.75;3.55;;;;;;;7.82;100.00;101162.56;6058865;23;20085;-72
2023/10/15 07:25:47;;;;;;;4.30;4.10;;;;;;;7.69;100.00;101154.28;6017945;23;20067;-73
2023/10/15 07:28:14;;;;;;;3.80;3.60;;;;;;;7.83;100.00;101169.50;6056217;23;20136;-73
2023/10/15 07:30:40;;;;;;;3.70;3.50;;;;;;;7.06;100.00;101028.41;6022621;23;20030;-74
2023/10/15 07:33:07;;;;;;;3.70;3.50;;;;;;;7.72;100.00;101128.06;6048861;23;20722;-73
2023/10/15 07:35:35;;;;;;;3.90;3.70;;;;;;;8.09;100.00;101176.47;6019615;23;20059;-73
2023/10/15 07:38:02;;;;;;;3.63;3.53;;;;;;;8.08;100.00;101159.06;6023726;23;20042;-73
2023/10/15 07:40:32;;;;;;;3.80;3.50;;;;;;;8.75;100.00;101229.97;6062154;23;20038;-73
2023/10/15 07:43:00;;;;;;;3.70;3.60;;;;;;;9.05;100.00;101257.72;6048823;23;20034;-74
2023/10/15 07:45:32;;;;;;;3.60;3.50;;;;;;;8.93;100.00;101222.38;6059946;23;20508;-72
2023/10/15 07:48:00;;;;;;;3.97;3.78;;;;;;;9.22;100.00;101215.16;6046396;23;20026;-73
2023/10/15 07:50:34;;;;;;;3.55;3.45;;;;;;;9.18;100.00;101210.06;6028206;23;20118;-73
2023/10/15 07:53:01;;;;;;;4.20;4.00;;;;;;;8.82;100.00;101114.59;5996023;23;20211;-73
2023/10/15 07:55:27;;;;;;;3.70;3.55;;;;;;;9.08;100.00;101161.59;6045612;23;20093;-73
2023/10/15 07:57:54;;;;;;;4.80;4.60;;;;;;;8.91;100.00;101129.94;6025990;23;20525;-73
2023/10/15 08:00:25;;;;;;;3.92;3.72;;;;;;;9.19;100.00;101166.41;6048228;23;20468;-73
2023/10/15 08:02:52;;;;;;;4.25;4.05;;;;;;;8.98;100.00;101140.13;6030630;23;20031;-74
2023/10/15 08:05:22;;;;;;;4.35;4.05;;;;;;;8.75;100.00;101130.53;6050875;23;20032;-73
2023/10/15 08:07:51;;;;;;;4.80;4.60;;;;;;;8.69;100.00;101133.38;6044208;23;20029;-73
2023/10/15 08:10:20;;;;;;;5.03;4.63;;;;;;;9.10;100.00;101198.16;6050489;23;20498;-74
2023/10/15 08:12:51;;;;;;;4.45;4.15;;;;;;;8.95;100.00;101178.66;6023215;23;20352;-72
2023/10/15 08:15:18;;;;;;;4.10;3.90;;;;;;;8.86;100.00;101163.28;6059330;23;20133;-72
2023/10/15 08:17:46;;;;;;;5.50;5.18;;;;;;;9.13;100.00;101243.41;6045838;23;20540;-74
2023/10/15 08:20:13;;;;;;;4.72;4.32;;;;;;;9.07;100.00;101206.16;6028858;23;20045;-73
2023/10/15 08:22:40;;;;;;;4.80;4.50;;;;;;;9.07;100.00;101222.69;6049400;23;20729;-73
2023/10/15 08:25:14;;;;;;;5.65;4.68;;;;;;;8.85;100.00;101179.91;6021877;23;20098;-72
2023/10/15 08:27:44;;;;;;;4.75;4.40;;;;;;;9.12;100.00;101220.78;6022854;23;20468;-72
2023/10/15 08:30:12;;;;;;;4.28;4.00;;;;;;;9.36;100.00;101253.03;6047522;23;20051;-72
2023/10/15 08:32:45;;;;;;;4.60;4.30;;;;;;;9.37;100.00;101249.50;6024366;23;20587;-73
2023/10/15 08:35:13;;;;;;;4.50;4.20;;;;;;;9.27;100.00;101239.44;6051829;23;20182;-73
2023/10/15 08:37:41;;;;;;;4.75;4.45;;;;;;;9.27;100.00;101250.75;6047307;23;20011;-73
2023/10/15 08:40:08;;;;;;;4.32;4.13;;;;;;;9.20;100.00;101230.97;6025774;23;20031;-73
2023/10/15 08:42:41;;;;;;;4.47;4.18;;;;;;;8.84;100.00;101181.69;6047219;23;20065;-74
2023/10/15 08:45:08;;;;;;;4.75;4.35;;;;;;;8.67;100.00;101143.03;6023992;23;20628;-73
2023/10/15 08:47:35;;;;;;;4.80;4.50;;;;;;;9.39;100.00;101260.75;6048551;23;20030;-73
2023/10/15 08:50:02;;;;;;;5.10;4.75;;;;;;;9.45;100.00;101258.84;6017410;23;20024;-72
2023/10/15 08:52:31;;;;;;;4.78;4.57;;;;;;;9.57;100.00;101281.94;6052847;23;20040;-74
2023/10/15 08:55:01;;;;;;;4.43;4.20;;;;;;;9.68;100.00;101269.28;6018423;23;20059;-73
2023/10/15 08:57:29;;;;;;;4.25;4.05;;;;;;;9.81;100.00;101277.50;6057337;23;20078;-74
2023/10/15 08:59:58;;;;;;;5.13;4.82;;;;;;;9.78;100.00;101249.66;6044997;23;20271;-73
2023/10/15 09:02:27;;;;;;;4.40;4.10;;;;;;;9.57;100.00;101177.13;6031154;23;20365;-76
2023/10/15 09:04:54;;;;;;;5.70;4.45;;;;;;;9.79;100.00;101200.69;6047127;23;20030;-74
2023/10/15 09:07:21;;;;;;;5.97;4.50;;;;;;;9.72;100.00;101171.28;6054485;23;20055;-74
2023/10/15 09:09:49;;;;;;;5.25;4.95;;;;;;;9.91;100.00;101207.22;6019859;23;20090;-74
2023/10/15 09:12:15;;;;;;;4.60;4.40;;;;;;;9.71;100.00;101134.63;6054410;23;20390;-74
2023/10/15 09:14:48;;;;;;;4.38;4.18;;;;;;;9.76;100.00;101128.28;6050798;23;20024;-74
2023/10/15 09:17:16;;;;;;;4.78;4.47;;;;;;;10.34;100.00;101214.16;6021386;23;20023;-75
2023/10/15 09:19:46;;;;;;;4.78;4.55;;;;;;;9.88;100.00;101150.53;6025491;23;20034;-74
2023/10/15 09:22:15;;;;;;;4.85;4.55;;;;;;;10.60;100.00;101213.94;6023994;23;20042;-75
2023/10/15 09:24:45;;;;;;;6.22;4.47;;;;;;;9.42;100.00;101005.72;6024202;23;20026;-75
2023/10/15 09:27:13;;;;;;;4.07;3.88;;;;;;;10.17;100.00;101098.59;6028772;23;20090;-74
2023/10/15 09:29:41;;;;;;;4.65;4.35;;;;;;;10.47;100.00;101140.16;6028614;23;20170;-75
2023/10/15 09:32:08;;;;;;;4.45;4.25;;;;;;;9.81;100.00;101031.09;6047941;23;20047;-75
2023/10/15 09:34:38;;;;;;;5.53;5.03;;;;;;;10.09;100.00;101100.69;6052537;23;20106;-75
2023/10/15 09:37:06;;;;;;;5.07;4.78;;;;;;;10.33;100.00;101170.47;6028615;23;20006;-74
2023/10/15 09:39:34;;;;;;;4.72;4.43;;;;;;;10.46;100.00;101183.03;6032674;23;20034;-76
2023/10/15 09:42:03;;;;;;;6.28;4.00;;;;;;;9.97;100.00;101081.09;6054405;23;20693;-76
2023/10/15 09:44:33;;;;;;;4.35;4.13;;;;;;;10.02;100.00;101089.59;6056469;23;20057;-75
2023/10/15 09:47:01;;;;;;;4.32;4.13;;;;;;;10.27;100.00;101152.34;6038112;23;20576;-76
2023/10/15 09:49:33;;;;;;;4.53;4.22;;;;;;;10.00;100.00;101112.41;6061386;23;20026;-75
2023/10/15 09:52:05;;;;;;;4.25;4.05;;;;;;;10.01;100.00;101131.63;6053978;23;20636;-76
2023/10/15 09:54:33;;;;;;;4.43;4.18;;;;;;;10.01;100.00;101144.75;6059724;23;20033;-75
2023/10/15 09:57:01;;;;;;;3.97;3.78;;;;;;;9.84;100.00;101154.16;6033055;23;20080;-75
2023/10/15 09:59:29;;;;;;;4.07;3.88;;;;;;;9.84;100.00;101171.66;6025385;23;20106;-76
2023/10/15 10:01:59;;;;;;;4.40;4.20;;;;;;;9.39;100.00;101131.56;6011006;23;20092;-74
2023/10/15 10:04:51;;;;;;;5.20;3.97;;;;;;;9.93;100.00;101242.91;6059593;23;20023;-75
2023/10/15 10:07:50;;;;;;;4.25;4.05;;;;;;;10.29;100.00;101278.19;6033060;23;20034;-75
2023/10/15 10:10:38;;;;;;;4.38;4.07;;;;;;;10.23;100.00;101226.84;6052082;23;20185;-75
2023/10/15 10:13:23;;;;;;;4.40;4.10;;;;;;;10.48;100.00;101234.53;6057593;23;20044;-75
2023/10/15 10:15:57;;;;;;;4.22;4.03;;;;;;;9.81;100.00;101078.28;6044844;23;20516;-75
2023/10/15 10:18:24;;;;;;;4.38;4.18;;;;;;;10.47;100.00;101195.25;6031551;23;20412;-75
2023/10/15 10:20:52;;;;;;;4.47;3.90;;;;;;;10.64;100.00;101244.38;6028254;23;20172;-75
2023/10/15 10:23:22;;;;;;;4.10;3.90;;;;;;;10.12;100.00;101138.13;6025074;23;20049;-74
2023/10/15 10:26:10;;;;;;;4.30;4.10;;;;;;;10.44;100.00;101183.09;6057988;23;20059;-74
2023/10/15 10:28:37;;;;;;;4.75;4.07;;;;;;;10.32;100.00;101171.41;6054587;23;20491;-75
2023/10/15 10:31:06;;;;;;;4.10;3.90;;;;;;;10.55;100.00;101138.03;6007137;23;20091;-76
2023/10/15 10:33:44;;;;;;;4.25;3.95;;;;;;;11.50;100.00;101248.34;6054737;23;20031;-75
2023/10/15 10:36:12;;;;;;;4.40;4.10;;;;;;;11.59;97.62;101187.47;6054327;23;20062;-74
2023/10/15 10:38:39;;;;;;;4.65;4.30;;;;;;;10.92;95.15;101049.69;6032397;23;20053;-75
2023/10/15 10:41:13;;;;;;;4.32;4.13;;;;;;;11.20;94.63;101106.13;6051575;23;20093;-73
2023/10/15 10:43:52;;;;;;;5.38;5.07;;;;;;;9.99;93.10;100920.16;6028308;23;20034;-74
2023/10/15 10:46:56;;;;;;;4.07;3.88;;;;;;;10.73;94.10;101092.56;6053232;23;20018;-74
2023/10/15 10:49:40;;;;;;;4.07;3.88;;;;;;;10.54;93.81;101076.84;6027156;23;20028;-73
2023/10/15 10:52:17;;;;;;;4.25;4.05;;;;;;;10.53;94.18;101085.59;6050471;23;20014;-74
2023/10/15 10:54:45;;;;;;;4.43;4.13;;;;;;;10.57;95.73;101139.66;6032004;23;20018;-74
2023/10/15 10:57:12;;;;;;;4.95;4.50;;;;;;;10.55;98.44;101191.38;6056876;23;20030;-75
2023/10/15 10:59:41;;;;;;;3.92;3.72;;;;;;;10.49;98.54;101206.53;6053971;23;20107;-73
2023/10/15 11:02:15;;;;;;;4.10;3.90;;;;;;;9.79;96.22;101056.53;6025073;23;20075;-75
2023/10/15 11:04:42;;;;;;;3.58;3.47;;;;;;;10.13;95.87;101107.50;6054604;23;20566;-75
2023/10/15 11:07:14;;;;;;;4.40;4.20;;;;;;;9.36;95.19;100987.59;6046863;23;20036;-73
2023/10/15 11:09:41;;;;;;;3.72;3.60;;;;;;;9.74;97.56;101096.06;6047507;23;20034;-73
2023/10/15 11:12:12;;;;;;;4.10;3.90;;;;;;;9.74;97.53;101098.66;6054485;23;20034;-74
2023/10/15 11:14:39;;;;;;;4.20;3.90;;;;;;;10.05;100.00;101204.00;6048064;23;20041;-74
2023/10/15 11:17:07;;;;;;;4.00;3.80;;;;;;;9.78;100.00;101165.78;6029533;23;20038;-74
2023/10/15 11:19:34;;;;;;;4.35;3.90;;;;;;;9.80;100.00;101189.28;6058655;23;20038;-74
2023/10/15 11:22:01;;;;;;;4.20;4.00;;;;;;;9.99;100.00;101252.31;6045348;23;20030;-74
2023/10/15 11:24:28;;;;;;;4.47;4.22;;;;;;;10.02;100.00;101269.69;6049174;23;20084;-74
2023/10/15 11:26:55;;;;;;;4.20;4.00;;;;;;;10.05;100.00;101241.56;6020250;23;20129;-73
2023/10/15 11:29:23;;;;;;;4.50;4.20;;;;;;;10.92;100.00;101314.91;6051760;23;20104;-74
2023/10/15 11:31:57;;;;;;;5.18;4.72;;;;;;;11.25;99.11;101288.91;6038300;23;20691;-75
2023/10/15 11:34:28;;;;;;;4.30;4.10;;;;;;;11.48;96.45;101240.53;6050800;23;20097;-74
2023/10/15 11:36:56;;;;;;;4.32;4.13;;;;;;;11.39;92.47;101125.34;6043345;23;20070;-74
2023/10/15 11:39:25;;;;;;;4.78;4.50;;;;;;;11.20;90.71;101048.34;6049902;23;20051;-73
2023/10/15 11:41:55;;;;;;;5.05;4.85;;;;;;;11.21;90.68;101074.56;5998622;23;20452;-74
2023/10/15 11:44:31;;;;;;;4.30;4.00;;;;;;;10.77;89.58;101007.50;6055936;23;20085;-73
2023/10/15 11:47:08;;;;;;;4.40;4.20;;;;;;;11.07;90.42;101064.72;6058151;23;20026;-73
2023/10/15 11:49:42;;;;;;;4.63;4.32;;;;;;;10.38;92.94;101041.69;6054154;23;20253;-73
2023/10/15 11:52:22;;;;;;;4.72;4.38;;;;;;;9.93;94.97;101032.34;6032628;23;20055;-74
2023/10/15 11:54:49;;;;;;;4.50;4.30;;;;;;;10.46;96.91;101168.13;6032915;23;20492;-73